Urania — 3FZA2 — position and weather

sailwx.info

Track history (hours):
 
Tides and Currents Weather Stations Pressure Air Temp Water Temp Dewpoint Dewpoint Depression Visibility Wind Speed Wind Dir Waves Ship Positions

Urania

Last reported at 2016-Aug-22 17:31 UTC. Time now 2016-Aug-29 18:02 UTC.
Position N 35°47' E 014°55'.

Length 87 m; draft 4.5 m.

Type: Ship (hazmat cat A). MMSI: 370859000.

Date/timePositionNaut miles runAvg speedWind from/ knotsBaromVisibWave heightAir tempDewpointWater temp
2016-Aug-22 17:31N 35°47' E 014°55'0 0.0
2016-Aug-22 16:31N 35°47' E 014°55'0 0.0
2016-Aug-22 15:31N 35°47' E 014°55'0 0.0
2016-Aug-22 14:25N 35°47' E 014°55'0 0.0
2016-Aug-22 13:31N 35°47' E 014°55'0 0.0
2016-Aug-22 12:25N 35°47' E 014°55'0 0.0
2016-Aug-22 11:31N 35°47' E 014°55'0 0.0
2016-Aug-22 10:22N 35°47' E 014°55'0 0.0
2016-Aug-22 09:31N 35°47' E 014°55'0 0.0
2016-Aug-22 08:13N 35°47' E 014°55'0 0.0
2016-Aug-22 07:28N 35°47' E 014°55'0 0.0
2016-Aug-22 06:16N 35°47' E 014°55'0 0.0
2016-Aug-22 05:31N 35°47' E 014°55'0 0.0
2016-Aug-22 04:13N 35°47' E 014°55'0 0.0
2016-Aug-22 02:28N 35°47' E 014°55'0 0.0
2016-Aug-22 01:28N 35°47' E 014°55'0 0.0
2016-Aug-22 00:31N 35°47' E 014°55'0 0.0
2016-Aug-21 23:31N 35°47' E 014°55'0 0.0
2016-Aug-21 22:31N 35°47' E 014°55'0 0.0
2016-Aug-21 21:31N 35°47' E 014°55'0 0.0
2016-Aug-21 20:31N 35°47' E 014°55'0 0.0
2016-Aug-21 19:25N 35°47' E 014°55'0 0.0
2016-Aug-21 18:28N 35°47' E 014°55'0 0.0
2016-Aug-21 17:28N 35°47' E 014°55'0 0.0
2016-Aug-21 14:25N 35°47' E 014°55'0 0.0
2016-Aug-21 13:31N 35°47' E 014°55'0 0.0
2016-Aug-21 12:31N 35°47' E 014°55'0 0.1
2016-Aug-21 11:33N 35°47' E 014°55'1 1.0
2016-Aug-21 10:31N 35°46' E 014°55'0 0.0
2016-Aug-21 09:31N 35°46' E 014°55'0 0.0
2016-Aug-21 08:31N 35°46' E 014°55'0 0.0
2016-Aug-21 07:31N 35°46' E 014°55'0 0.0
2016-Aug-21 06:31N 35°46' E 014°55'0 0.0
2016-Aug-21 05:31N 35°46' E 014°55'0 0.0
2016-Aug-21 04:28N 35°46' E 014°55'0 0.0
2016-Aug-21 03:31N 35°46' E 014°55'0 0.0
2016-Aug-21 02:31N 35°46' E 014°55'0 0.0
2016-Aug-21 01:31N 35°46' E 014°55'0 0.0
2016-Aug-21 00:28N 35°46' E 014°55'0 0.0
2016-Aug-20 23:31N 35°46' E 014°55'0 0.0
2016-Aug-20 22:28N 35°46' E 014°55'0 0.0
2016-Aug-20 21:31N 35°46' E 014°55'0 0.0
2016-Aug-20 20:04N 35°46' E 014°55'0 0.0
2016-Aug-20 19:31N 35°46' E 014°55'0 0.0
2016-Aug-20 18:31N 35°46' E 014°55'0 0.0
2016-Aug-20 15:28N 35°46' E 014°55'0 0.0
2016-Aug-20 14:13N 35°46' E 014°55'0 0.0
2016-Aug-20 13:31N 35°46' E 014°55'0 0.0
2016-Aug-20 12:31N 35°46' E 014°55'0 0.0
2016-Aug-20 11:31N 35°46' E 014°55'0 0.0
2016-Aug-20 10:31N 35°46' E 014°55'0 0.0
2016-Aug-20 09:31N 35°46' E 014°55'0 0.0
2016-Aug-20 08:28N 35°46' E 014°55'1 0.5
2016-Aug-20 06:31N 35°45' E 014°55'1 0.5
2016-Aug-20 03:31N 35°44' E 014°53'0 0.0
2016-Aug-20 02:31N 35°44' E 014°53'0 0.0
2016-Aug-20 01:31N 35°44' E 014°53'0 0.0
2016-Aug-20 00:31N 35°44' E 014°53'0 0.0
2016-Aug-19 23:07N 35°44' E 014°53'0 0.0
2016-Aug-19 22:31N 35°44' E 014°53'0 0.0
2016-Aug-19 21:31N 35°44' E 014°53'0 0.0
2016-Aug-19 20:31N 35°44' E 014°53'0 0.0
2016-Aug-19 19:31N 35°44' E 014°53'0 0.0
2016-Aug-19 18:31N 35°44' E 014°53'2 2.3
2016-Aug-19 17:33N 35°43' E 014°52'9 8.9
2016-Aug-19 16:33N 35°36' E 014°45'8 8.5
2016-Aug-19 15:33N 35°36' E 014°34'8 8.3
2016-Aug-19 14:33N 35°35' E 014°24'  
2016-Aug-13 11:26N 35°47' E 014°51'0 0.0
2016-Aug-13 10:33N 35°47' E 014°51'0 0.0
2016-Aug-13 00:12N 35°47' E 014°51'0 0.0
2016-Aug-12 23:12N 35°47' E 014°51'0 0.0
2016-Aug-12 22:27N 35°47' E 014°51'0 0.0
2016-Aug-12 18:16N 35°47' E 014°51'  
Track history (hours):
 
Tides and Currents Weather Stations Pressure Air Temp Water Temp Dewpoint Dewpoint Depression Visibility Wind Speed Wind Dir Waves Ship Positions

Urania

Last reported at 2016-Aug-22 17:31 UTC. Time now 2016-Aug-29 18:02 UTC.
Position N 35°47' E 014°55'.

Length 87 m; draft 4.5 m.

Type: Ship (hazmat cat A). MMSI: 370859000.

Date/timePositionNaut miles runAvg speedWind from/ knotsBaromVisibWave heightAir tempDewpointWater temp
2016-Aug-22 17:31N 35°47' E 014°55'0 0.0
2016-Aug-22 16:31N 35°47' E 014°55'0 0.0
2016-Aug-22 15:31N 35°47' E 014°55'0 0.0
2016-Aug-22 14:25N 35°47' E 014°55'0 0.0
2016-Aug-22 13:31N 35°47' E 014°55'0 0.0
2016-Aug-22 12:25N 35°47' E 014°55'0 0.0
2016-Aug-22 11:31N 35°47' E 014°55'0 0.0
2016-Aug-22 10:22N 35°47' E 014°55'0 0.0
2016-Aug-22 09:31N 35°47' E 014°55'0 0.0
2016-Aug-22 08:13N 35°47' E 014°55'0 0.0
2016-Aug-22 07:28N 35°47' E 014°55'0 0.0
2016-Aug-22 06:16N 35°47' E 014°55'0 0.0
2016-Aug-22 05:31N 35°47' E 014°55'0 0.0
2016-Aug-22 04:13N 35°47' E 014°55'0 0.0
2016-Aug-22 02:28N 35°47' E 014°55'0 0.0
2016-Aug-22 01:28N 35°47' E 014°55'0 0.0
2016-Aug-22 00:31N 35°47' E 014°55'0 0.0
2016-Aug-21 23:31N 35°47' E 014°55'0 0.0
2016-Aug-21 22:31N 35°47' E 014°55'0 0.0
2016-Aug-21 21:31N 35°47' E 014°55'0 0.0
2016-Aug-21 20:31N 35°47' E 014°55'0 0.0
2016-Aug-21 19:25N 35°47' E 014°55'0 0.0
2016-Aug-21 18:28N 35°47' E 014°55'0 0.0
2016-Aug-21 17:28N 35°47' E 014°55'0 0.0
2016-Aug-21 14:25N 35°47' E 014°55'0 0.0
2016-Aug-21 13:31N 35°47' E 014°55'0 0.0
2016-Aug-21 12:31N 35°47' E 014°55'0 0.1
2016-Aug-21 11:33N 35°47' E 014°55'1 1.0
2016-Aug-21 10:31N 35°46' E 014°55'0 0.0
2016-Aug-21 09:31N 35°46' E 014°55'0 0.0
2016-Aug-21 08:31N 35°46' E 014°55'0 0.0
2016-Aug-21 07:31N 35°46' E 014°55'0 0.0
2016-Aug-21 06:31N 35°46' E 014°55'0 0.0
2016-Aug-21 05:31N 35°46' E 014°55'0 0.0
2016-Aug-21 04:28N 35°46' E 014°55'0 0.0
2016-Aug-21 03:31N 35°46' E 014°55'0 0.0
2016-Aug-21 02:31N 35°46' E 014°55'0 0.0
2016-Aug-21 01:31N 35°46' E 014°55'0 0.0
2016-Aug-21 00:28N 35°46' E 014°55'0 0.0
2016-Aug-20 23:31N 35°46' E 014°55'0 0.0
2016-Aug-20 22:28N 35°46' E 014°55'0 0.0
2016-Aug-20 21:31N 35°46' E 014°55'0 0.0
2016-Aug-20 20:04N 35°46' E 014°55'0 0.0
2016-Aug-20 19:31N 35°46' E 014°55'0 0.0
2016-Aug-20 18:31N 35°46' E 014°55'0 0.0
2016-Aug-20 15:28N 35°46' E 014°55'0 0.0
2016-Aug-20 14:13N 35°46' E 014°55'0 0.0
2016-Aug-20 13:31N 35°46' E 014°55'0 0.0
2016-Aug-20 12:31N 35°46' E 014°55'0 0.0
2016-Aug-20 11:31N 35°46' E 014°55'0 0.0
2016-Aug-20 10:31N 35°46' E 014°55'0 0.0
2016-Aug-20 09:31N 35°46' E 014°55'0 0.0
2016-Aug-20 08:28N 35°46' E 014°55'1 0.5
2016-Aug-20 06:31N 35°45' E 014°55'1 0.5
2016-Aug-20 03:31N 35°44' E 014°53'0 0.0
2016-Aug-20 02:31N 35°44' E 014°53'0 0.0
2016-Aug-20 01:31N 35°44' E 014°53'0 0.0
2016-Aug-20 00:31N 35°44' E 014°53'0 0.0
2016-Aug-19 23:07N 35°44' E 014°53'0 0.0
2016-Aug-19 22:31N 35°44' E 014°53'0 0.0
2016-Aug-19 21:31N 35°44' E 014°53'0 0.0
2016-Aug-19 20:31N 35°44' E 014°53'0 0.0
2016-Aug-19 19:31N 35°44' E 014°53'0 0.0
2016-Aug-19 18:31N 35°44' E 014°53'2 2.3
2016-Aug-19 17:33N 35°43' E 014°52'9 8.9
2016-Aug-19 16:33N 35°36' E 014°45'8 8.5
2016-Aug-19 15:33N 35°36' E 014°34'8 8.3
2016-Aug-19 14:33N 35°35' E 014°24'  
2016-Aug-13 11:26N 35°47' E 014°51'0 0.0
2016-Aug-13 10:33N 35°47' E 014°51'0 0.0
2016-Aug-13 00:12N 35°47' E 014°51'0 0.0
2016-Aug-12 23:12N 35°47' E 014°51'0 0.0
2016-Aug-12 22:27N 35°47' E 014°51'0 0.0
2016-Aug-12 18:16N 35°47' E 014°51'  

Dump ship's entire track history